Terminal Aerodrome Forecast
Issued by NWS

Current Version | Previous Version | Graphics & Text | Print | Product List | Glossary On
Versions: 1 2 3 4 5 6 7 8 9 10 11 12 13 14 15 16 17 18 19 20 21 22
000
FTUS41 KRLX 201753
TAFCKB
TAF
KCKB 201753Z 2018/2118 22006KT P6SM BKN090
     FM210000 22006KT 6SM -SHRA OVC040
     FM210300 VRB03KT 3SM SHRA OVC015
     FM210600 00000KT 3SM -SHRA OVC006
     FM211400 33005KT 3SM -SHRA OVC009
     FM211600 32005KT 6SM -SHRA OVC015=

USA.gov is the U.S. government's official web portal to all federal, state and local government web resources and services.